Terminal Aerodrome Forecast
Issued by NWS

Home | Current Version | Previous Version | Text Only | Print | Product List | Glossary On
Versions: 1 2 3 4 5 6 7 8 9 10 11 12 13 14 15 16
000
FTUS46 KSTO 290500
TAFSMF
TAF
KSMF 290520Z 2906/3006 VRB04KT P6SM BKN250
     FM291000 VRB03KT 4SM BR BKN250
      TEMPO 2912/2916 1SM BR SCT250
     FM291800 33007KT P6SM SCT250=

USA.gov is the U.S. government's official web portal to all federal, state and local government web resources and services.